Time;durP1;ratioP1;P1;durP2;ratioP2;P2;SDS_P1;SDS_P2;PMS_P1;PMS_P2;Temp;Humidity;BMP_temperature;BMP_pressure;BME280_temperature;BME280_humidity;BME280_pressure;Samples;Min_cycle;Max_cycle;Signal;HPM_P1;HPM_P2
2021/07/19 00:01:53;;;;;;;1.55;1.40;;;;;;;24.60;73.55;97873.34;4959032;28;20038;-92
2021/07/19 00:04:19;;;;;;;1.90;1.40;;;;;;;24.80;73.77;97900.06;4959377;28;20041;-94
2021/07/19 00:06:45;;;;;;;7.45;2.72;;;;;;;24.68;74.74;97890.38;4959913;28;20062;-95
2021/07/19 00:09:10;;;;;;;7.15;1.83;;;;;;;24.69;74.86;97897.53;4958931;28;20102;-95
2021/07/19 00:11:37;;;;;;;1.65;1.52;;;;;;;24.73;74.48;97906.41;4958676;28;20035;-94
2021/07/19 00:14:03;;;;;;;2.65;1.98;;;;;;;24.72;74.81;97893.59;4957850;28;20022;-93
2021/07/19 00:16:29;;;;;;;0.82;0.82;;;;;;;24.73;75.28;97889.47;4955337;28;20093;-95
2021/07/19 00:18:55;;;;;;;2.08;1.95;;;;;;;24.53;76.23;97881.78;4938758;29;20027;-92
2021/07/19 00:21:20;;;;;;;0.95;0.95;;;;;;;24.67;76.06;97905.81;4937949;29;20094;-93
2021/07/19 00:23:46;;;;;;;1.77;1.65;;;;;;;24.46;77.27;97883.22;4940821;29;20039;-94
2021/07/19 00:26:12;;;;;;;1.40;1.30;;;;;;;24.44;77.35;97885.06;4930671;29;20473;-92
2021/07/19 00:28:37;;;;;;;1.30;1.17;;;;;;;24.41;77.40;97877.72;4919950;29;20480;-92
2021/07/19 00:31:03;;;;;;;1.52;1.30;;;;;;;24.35;77.91;97871.44;4936455;29;20036;-94
2021/07/19 00:33:28;;;;;;;0.90;0.90;;;;;;;24.35;78.41;97877.09;4918895;29;20038;-94
2021/07/19 00:35:54;;;;;;;1.90;1.75;;;;;;;23.92;78.87;97819.84;4923908;29;20095;-96
2021/07/19 00:38:19;;;;;;;1.40;1.27;;;;;;;24.36;78.75;97895.53;4926146;29;20032;-95
2021/07/19 00:40:45;;;;;;;1.40;1.33;;;;;;;24.37;79.09;97897.06;4922456;29;20030;-95
2021/07/19 00:43:10;;;;;;;2.15;1.95;;;;;;;24.33;79.59;97895.34;4919722;29;20046;-95
2021/07/19 00:45:36;;;;;;;1.70;1.60;;;;;;;24.24;79.88;97883.75;4939163;29;20091;-94
2021/07/19 00:48:05;;;;;;;0.88;0.88;;;;;;;24.21;80.43;97884.88;4918979;29;20118;-94
2021/07/19 00:50:33;;;;;;;1.48;1.38;;;;;;;24.26;80.42;97893.19;4918897;29;20028;-94
2021/07/19 00:53:01;;;;;;;2.95;2.67;;;;;;;24.08;80.94;97891.28;4919860;29;20035;-94
2021/07/19 00:55:36;;;;;;;3.17;1.80;;;;;;;23.99;81.16;97874.81;4919362;29;20036;-93
2021/07/19 00:58:04;;;;;;;9.00;1.83;;;;;;;23.93;81.62;97877.75;4937131;29;20056;-94
2021/07/19 01:00:31;;;;;;;1.25;1.25;;;;;;;23.64;82.23;97849.97;4935807;29;20534;-94
2021/07/19 01:02:57;;;;;;;1.42;1.33;;;;;;;23.55;82.48;97839.91;4918995;29;20035;-92
2021/07/19 01:05:25;;;;;;;1.50;1.40;;;;;;;23.83;82.65;97885.19;4919272;29;20091;-92
2021/07/19 01:07:53;;;;;;;1.77;1.67;;;;;;;23.75;81.89;97867.41;4918839;29;20024;-92
2021/07/19 01:10:19;;;;;;;2.65;2.05;;;;;;;23.81;82.76;97890.59;4918759;29;20095;-92
2021/07/19 01:12:46;;;;;;;2.25;1.67;;;;;;;23.55;80.89;97870.19;4918890;29;20449;-95
2021/07/19 01:15:12;;;;;;;4.72;4.18;;;;;;;23.65;79.64;97905.06;4930227;29;20039;-96
2021/07/19 01:17:38;;;;;;;3.85;2.72;;;;;;;23.46;80.13;97886.22;4930952;29;20058;-96
2021/07/19 01:20:05;;;;;;;2.42;2.22;;;;;;;23.47;79.35;97887.00;4939871;29;20024;-96
2021/07/19 01:22:36;;;;;;;4.22;3.85;;;;;;;23.51;79.04;97885.34;4937466;29;20412;-96
2021/07/19 01:25:46;;;;;;;3.28;3.03;;;;;;;23.62;78.90;97912.59;4919621;29;20118;-91
2021/07/19 01:28:11;;;;;;;8.38;3.55;;;;;;;23.62;78.82;97897.72;4923754;29;20043;-96
2021/07/19 01:30:42;;;;;;;6.63;2.65;;;;;;;23.46;79.01;97874.94;4918698;29;20032;-94
2021/07/19 01:33:08;;;;;;;6.60;3.33;;;;;;;23.51;79.38;97879.72;4935565;29;20058;-94
2021/07/19 01:35:37;;;;;;;3.53;2.15;;;;;;;23.56;80.10;97880.16;4918828;29;20127;-95
2021/07/19 01:38:06;;;;;;;3.22;2.63;;;;;;;23.81;79.64;97898.34;4922065;29;20101;-96
2021/07/19 01:40:32;;;;;;;3.08;2.75;;;;;;;23.91;78.25;97900.16;4927088;29;20091;-95
2021/07/19 01:42:58;;;;;;;14.93;4.13;;;;;;;23.66;77.35;97867.13;4925619;29;20468;-89
2021/07/19 01:45:24;;;;;;;8.73;2.80;;;;;;;23.66;77.53;97875.56;4938815;29;20036;-93
2021/07/19 01:47:51;;;;;;;11.13;4.15;;;;;;;23.77;77.35;97897.91;4921911;29;20105;-91
2021/07/19 01:50:16;;;;;;;3.38;2.55;;;;;;;23.45;78.52;97870.59;4921848;29;20119;-89
2021/07/19 01:52:43;;;;;;;4.18;3.08;;;;;;;23.63;78.37;97868.22;4921416;29;20059;-93
2021/07/19 01:55:09;;;;;;;6.63;3.25;;;;;;;23.76;78.18;97913.28;4925590;29;20054;-91
2021/07/19 01:57:36;;;;;;;2.13;1.92;;;;;;;23.71;78.88;97922.63;4940459;29;20067;-89
2021/07/19 02:00:04;;;;;;;3.95;3.13;;;;;;;23.53;78.60;97905.31;4940434;29;20567;-89
2021/07/19 02:02:30;;;;;;;1.80;1.70;;;;;;;23.45;79.34;97912.13;4940329;29;20038;-89
2021/07/19 02:04:56;;;;;;;2.13;1.70;;;;;;;23.20;80.62;97908.78;4941242;29;20118;-89
2021/07/19 02:07:24;;;;;;;3.67;2.00;;;;;;;23.07;80.67;97880.59;4940496;29;20077;-90
2021/07/19 02:09:51;;;;;;;3.20;2.83;;;;;;;23.15;80.63;97918.09;4924231;29;20038;-90
2021/07/19 02:12:17;;;;;;;6.90;2.13;;;;;;;23.04;80.91;97912.66;4921467;29;20035;-92
2021/07/19 02:14:45;;;;;;;4.07;2.22;;;;;;;22.86;81.56;97914.28;4922309;29;20032;-92
2021/07/19 02:17:12;;;;;;;1.27;1.27;;;;;;;22.66;81.93;97912.81;4938308;29;20063;-91
2021/07/19 02:19:39;;;;;;;1.10;1.05;;;;;;;22.50;82.69;97918.69;4941522;29;20039;-92
2021/07/19 02:22:06;;;;;;;1.67;1.58;;;;;;;22.37;83.51;97921.47;4940147;29;20521;-92
2021/07/19 02:24:33;;;;;;;5.57;2.93;;;;;;;22.14;84.97;97915.44;4940371;29;20507;-92
2021/07/19 02:27:00;;;;;;;3.40;2.83;;;;;;;22.17;85.11;97922.81;4940268;29;20306;-91
2021/07/19 02:29:27;;;;;;;1.75;1.40;;;;;;;22.09;85.64;97917.03;4957042;29;20058;-93
2021/07/19 02:31:52;;;;;;;3.00;2.30;;;;;;;22.06;85.32;97922.97;4957265;29;20031;-91
2021/07/19 02:34:19;;;;;;;9.35;3.17;;;;;;;21.86;85.65;97888.44;4940254;29;20042;-90
2021/07/19 02:36:47;;;;;;;5.68;2.92;;;;;;;21.87;86.25;97904.03;4940158;29;20027;-95
2021/07/19 02:39:17;;;;;;;19.52;3.55;;;;;;;21.93;85.90;97913.16;4942788;29;20039;-94
2021/07/19 02:41:44;;;;;;;3.13;2.92;;;;;;;21.80;85.84;97910.25;4941201;29;20031;-94
2021/07/19 02:44:11;;;;;;;3.00;2.27;;;;;;;21.75;86.35;97922.34;4940564;29;20041;-94
2021/07/19 02:46:38;;;;;;;7.00;3.05;;;;;;;21.57;86.61;97900.59;4939928;29;20037;-96
2021/07/19 02:49:09;;;;;;;18.05;2.45;;;;;;;21.62;87.27;97919.44;4940029;28;20042;-96
2021/07/19 02:51:35;;;;;;;2.90;2.17;;;;;;;21.39;87.70;97898.53;4921305;29;20091;-95
2021/07/19 02:54:03;;;;;;;2.25;1.98;;;;;;;21.18;88.52;97892.63;4937639;29;20031;-90
2021/07/19 02:56:33;;;;;;;2.05;1.20;;;;;;;21.34;89.10;97927.47;4920569;29;20062;-92
2021/07/19 02:58:59;;;;;;;1.50;1.40;;;;;;;21.17;88.95;97907.97;4920850;29;20100;-92
2021/07/19 03:01:26;;;;;;;1.75;1.65;;;;;;;21.20;89.54;97914.59;4937469;29;20421;-93
2021/07/19 03:03:55;;;;;;;1.40;1.25;;;;;;;21.22;89.76;97918.38;4920818;29;20510;-94
2021/07/19 03:06:25;;;;;;;2.22;1.83;;;;;;;21.35;89.49;97935.34;4937071;29;20051;-91
2021/07/19 03:08:52;;;;;;;2.00;1.90;;;;;;;21.15;90.86;97909.78;4920895;29;20534;-93
2021/07/19 03:11:26;;;;;;;2.45;2.25;;;;;;;21.20;91.90;97911.78;4920642;29;20115;-92
2021/07/19 03:13:58;;;;;;;3.08;2.35;;;;;;;21.28;91.89;97923.97;4921320;29;20032;-95
2021/07/19 03:16:27;;;;;;;3.97;1.85;;;;;;;21.42;92.57;97931.94;4920724;29;20067;-95
2021/07/19 03:18:54;;;;;;;1.35;1.25;;;;;;;21.46;92.03;97951.31;4921441;29;20488;-94
2021/07/19 03:21:20;;;;;;;1.67;1.57;;;;;;;21.34;93.31;97930.28;4920767;29;20119;-92
2021/07/19 03:23:48;;;;;;;3.10;1.95;;;;;;;21.47;93.15;97944.41;4937488;29;20067;-94
2021/07/19 03:26:19;;;;;;;2.87;2.67;;;;;;;21.41;91.90;97926.84;4920359;29;20026;-94
2021/07/19 03:28:45;;;;;;;4.40;3.53;;;;;;;21.44;91.60;97925.81;4937136;29;20034;-94
2021/07/19 03:31:11;;;;;;;2.75;1.17;;;;;;;21.38;91.48;97923.06;4920697;29;20035;-94
2021/07/19 03:33:43;;;;;;;2.28;1.75;;;;;;;21.55;90.47;97938.97;4920549;29;20388;-93
2021/07/19 03:36:12;;;;;;;3.40;1.90;;;;;;;21.48;90.29;97921.41;4919841;29;20043;-94
2021/07/19 03:38:41;;;;;;;8.13;3.25;;;;;;;21.49;90.73;97927.78;4920975;29;20091;-94
2021/07/19 03:41:07;;;;;;;10.20;4.43;;;;;;;21.66;90.74;97964.13;4953605;29;20039;-94
2021/07/19 03:43:36;;;;;;;1.73;1.63;;;;;;;21.33;90.04;97878.16;4956428;29;20110;-92
2021/07/19 03:46:02;;;;;;;2.80;2.60;;;;;;;21.91;90.11;97949.47;4939028;29;20126;-93
2021/07/19 03:48:28;;;;;;;6.60;1.98;;;;;;;22.12;89.18;97955.34;4938806;29;20099;-91
2021/07/19 03:50:54;;;;;;;1.45;1.40;;;;;;;22.31;88.39;97949.69;4938846;29;20081;-91
2021/07/19 03:53:20;;;;;;;1.92;1.77;;;;;;;22.37;87.28;97927.84;4938800;29;20035;-89
2021/07/19 03:55:48;;;;;;;2.65;2.45;;;;;;;22.53;86.75;97940.94;4942685;29;20039;-90
2021/07/19 03:58:15;;;;;;;4.40;2.88;;;;;;;22.80;85.85;97960.72;4940894;29;20510;-90
2021/07/19 04:00:41;;;;;;;2.42;2.22;;;;;;;22.83;84.61;97954.03;4938722;28;20031;-92
2021/07/19 04:03:19;;;;;;;3.70;2.83;;;;;;;23.04;84.85;97960.56;4927793;29;20039;-90
2021/07/19 04:05:45;;;;;;;;;;;;;;;23.07;84.51;97974.34;4920918;29;20039;-90
2021/07/19 04:08:12;;;;;;;3.47;2.63;;;;;;;23.14;84.80;97972.94;4919628;29;19918;-90
2021/07/19 04:10:38;;;;;;;2.83;2.63;;;;;;;23.35;83.53;97979.47;4919466;29;20480;-91
2021/07/19 04:13:06;;;;;;;2.88;2.55;;;;;;;23.43;83.07;97971.88;4936357;29;20051;-90
2021/07/19 04:15:34;;;;;;;2.30;1.75;;;;;;;23.51;82.60;97978.41;4919717;29;20119;-90
2021/07/19 04:18:00;;;;;;;15.43;1.77;;;;;;;23.63;82.58;97950.75;4919962;29;20027;-89
2021/07/19 04:20:25;;;;;;;2.80;1.67;;;;;;;23.93;80.77;97953.22;4919765;29;20404;-95
2021/07/19 04:22:53;;;;;;;1.75;1.65;;;;;;;24.03;80.66;97959.91;4919272;29;20127;-94
2021/07/19 04:25:19;;;;;;;;;;;;;;;24.30;80.02;97981.13;4919653;29;20065;-93
2021/07/19 04:27:44;;;;;;;1.48;1.45;;;;;;;24.53;79.72;97955.97;4919239;29;20054;-94
2021/07/19 04:30:11;;;;;;;2.17;2.08;;;;;;;24.81;77.35;97940.41;4932805;29;20079;-94
2021/07/19 04:32:44;;;;;;;2.60;1.65;;;;;;;25.44;75.99;97955.94;4938229;29;20035;-92
2021/07/19 04:35:28;;;;;;;1.75;1.65;;;;;;;25.92;73.91;97960.03;4938124;29;20042;-95
2021/07/19 04:37:54;;;;;;;3.65;1.70;;;;;;;26.13;72.49;97974.06;4937964;29;20082;-92
2021/07/19 04:40:23;;;;;;;1.70;1.60;;;;;;;26.38;71.85;97968.69;4938233;29;20035;-93
2021/07/19 04:42:50;;;;;;;1.88;1.50;;;;;;;26.73;70.28;97971.41;4938871;29;20419;-94
2021/07/19 04:45:19;;;;;;;1.52;1.38;;;;;;;26.98;69.51;97994.34;4955277;29;20023;-93
2021/07/19 04:47:46;;;;;;;1.17;1.08;;;;;;;27.42;67.63;97983.53;4938630;29;20404;-94
2021/07/19 04:50:14;;;;;;;2.57;2.37;;;;;;;27.92;66.61;97981.72;4938130;29;20065;-93
2021/07/19 04:52:40;;;;;;;1.55;1.45;;;;;;;28.21;65.17;97985.03;4955266;29;20026;-92
2021/07/19 04:55:09;;;;;;;1.00;1.00;;;;;;;28.41;63.69;97991.00;4937676;29;20035;-93
2021/07/19 04:57:36;;;;;;;1.33;1.23;;;;;;;28.66;62.77;97989.72;4937878;29;20062;-93
2021/07/19 05:00:04;;;;;;;1.90;1.65;;;;;;;28.95;62.11;97992.22;4924125;29;20046;-93
2021/07/19 05:02:30;;;;;;;2.40;2.17;;;;;;;29.21;61.30;97999.41;4928396;29;20130;-92
2021/07/19 05:04:57;;;;;;;5.38;1.80;;;;;;;29.08;60.32;97952.09;4938503;29;20476;-92
2021/07/19 05:07:26;;;;;;;1.77;1.55;;;;;;;29.67;60.06;98009.06;4954780;29;20074;-93
2021/07/19 05:09:54;;;;;;;2.08;1.88;;;;;;;29.33;60.02;97986.25;4937810;29;20031;-94
2021/07/19 05:12:25;;;;;;;2.65;2.30;;;;;;;29.29;60.40;98003.72;4937756;28;20019;-93
2021/07/19 05:14:51;;;;;;;1.55;1.45;;;;;;;29.55;60.15;98010.88;4940194;29;20079;-94
2021/07/19 05:17:16;;;;;;;2.25;2.15;;;;;;;29.51;59.39;97979.25;4958339;29;20140;-94
2021/07/19 05:19:43;;;;;;;1.48;1.38;;;;;;;28.87;60.67;97975.22;4958590;29;20463;-96
2021/07/19 05:22:10;;;;;;;2.13;1.80;;;;;;;29.03;60.52;97959.53;4941729;29;20171;-92
2021/07/19 05:24:36;;;;;;;1.42;1.27;;;;;;;29.75;57.39;97991.91;4943827;29;20031;-94
2021/07/19 05:27:02;;;;;;;5.05;2.10;;;;;;;29.83;57.60;98007.59;4940179;29;20032;-96
2021/07/19 05:29:27;;;;;;;2.20;2.05;;;;;;;30.74;55.65;98002.88;4924132;29;20027;-93
2021/07/19 05:31:53;;;;;;;1.45;1.10;;;;;;;31.45;53.14;98025.56;4922676;29;20036;-94
2021/07/19 05:34:18;;;;;;;1.13;1.13;;;;;;;31.73;51.75;98018.41;4939046;29;20031;-91
2021/07/19 05:36:44;;;;;;;9.13;2.47;;;;;;;32.24;49.89;98002.97;4923655;29;20393;-90
2021/07/19 05:39:09;;;;;;;8.27;1.30;;;;;;;31.76;52.04;98028.66;4942348;29;20035;-91
2021/07/19 05:41:34;;;;;;;1.92;1.20;;;;;;;32.69;49.61;98019.16;4923135;29;20024;-93
2021/07/19 05:44:00;;;;;;;9.88;1.00;;;;;;;32.81;48.90;97987.81;4940072;29;20036;-91
2021/07/19 05:46:25;;;;;;;2.17;1.30;;;;;;;32.78;47.45;97980.44;4930163;29;20502;-91
2021/07/19 05:48:50;;;;;;;1.10;1.02;;;;;;;32.60;48.11;97974.16;4923527;29;20032;-92
2021/07/19 05:51:16;;;;;;;1.45;1.10;;;;;;;33.38;47.37;98034.75;4921855;29;20488;-94
2021/07/19 05:53:41;;;;;;;1.23;1.23;;;;;;;32.52;49.32;98033.63;4922691;29;20024;-90
2021/07/19 05:56:10;;;;;;;1.33;1.23;;;;;;;32.56;49.18;98016.00;4922691;29;20059;-94
2021/07/19 05:58:36;;;;;;;0.93;0.93;;;;;;;33.02;48.24;98036.53;4921763;29;20024;-94
2021/07/19 06:01:01;;;;;;;2.55;1.45;;;;;;;34.09;45.51;98002.31;4921685;29;20035;-93
2021/07/19 06:03:27;;;;;;;0.88;0.88;;;;;;;35.10;43.56;98026.84;4921662;29;20082;-92
2021/07/19 06:05:52;;;;;;;1.73;1.23;;;;;;;35.13;43.36;98024.84;4924699;29;20024;-94
2021/07/19 06:08:18;;;;;;;0.68;0.68;;;;;;;35.92;41.94;98029.69;4922509;29;20032;-90
2021/07/19 06:10:43;;;;;;;0.55;0.47;;;;;;;36.15;40.67;98044.00;4944224;29;20059;-96
2021/07/19 06:13:10;;;;;;;2.13;1.10;;;;;;;35.41;41.89;98025.88;4923116;29;20090;-93
2021/07/19 06:15:35;;;;;;;1.55;1.15;;;;;;;36.04;40.43;97972.16;4934081;29;20035;-96
2021/07/19 06:18:01;;;;;;;1.25;1.17;;;;;;;36.33;39.64;97958.03;4949715;29;20027;-95
2021/07/19 06:20:32;;;;;;;4.53;1.42;;;;;;;35.53;41.00;98008.63;4944203;29;20130;-91
2021/07/19 06:23:02;;;;;;;1.25;0.98;;;;;;;36.12;40.85;98039.50;4959703;29;20039;-96
2021/07/19 06:25:30;;;;;;;1.25;1.20;;;;;;;34.82;42.43;97989.88;4943819;29;20031;-96
2021/07/19 06:27:58;;;;;;;3.40;1.67;;;;;;;34.28;43.92;98011.53;4944951;29;20039;-92
2021/07/19 06:30:24;;;;;;;2.95;2.00;;;;;;;33.11;46.41;97972.00;4945211;29;20030;-94
2021/07/19 06:32:49;;;;;;;3.20;1.83;;;;;;;33.86;46.10;98015.19;4946165;29;20031;-95
2021/07/19 06:35:15;;;;;;;1.67;1.27;;;;;;;34.39;45.33;98000.72;4942436;29;20058;-93
2021/07/19 06:37:40;;;;;;;6.32;2.28;;;;;;;34.37;45.03;98009.94;4940489;29;20035;-93
2021/07/19 06:40:07;;;;;;;2.40;1.80;;;;;;;35.62;42.21;98008.50;4957978;29;20070;-94
2021/07/19 06:42:33;;;;;;;1.45;1.25;;;;;;;35.36;42.01;98032.75;4942961;29;20099;-95
2021/07/19 06:44:59;;;;;;;1.10;1.10;;;;;;;33.32;46.24;98037.19;4958244;29;20563;-89
2021/07/19 06:47:25;;;;;;;2.92;1.88;;;;;;;32.67;49.39;98041.91;4939871;29;20030;-91
2021/07/19 06:49:51;;;;;;;3.58;2.55;;;;;;;32.21;49.67;98032.75;4939790;29;20502;-93
2021/07/19 06:52:16;;;;;;;2.03;1.23;;;;;;;32.54;50.07;98033.03;4939748;29;20035;-91
2021/07/19 06:54:42;;;;;;;6.35;2.10;;;;;;;32.02;50.37;97982.03;4939907;29;20037;-91
2021/07/19 06:57:08;;;;;;;0.90;0.90;;;;;;;32.43;49.93;98030.78;4939331;29;20106;-92
2021/07/19 06:59:33;;;;;;;0.90;0.85;;;;;;;32.28;49.55;98026.88;4939522;29;20039;-91
2021/07/19 07:01:58;;;;;;;1.35;1.25;;;;;;;31.93;50.85;98034.22;4956442;29;20039;-94
2021/07/19 07:04:24;;;;;;;1.48;1.38;;;;;;;32.71;49.70;98033.63;4956493;29;20484;-90
2021/07/19 07:06:49;;;;;;;1.58;1.48;;;;;;;33.17;48.41;98001.06;4939576;29;20035;-91
2021/07/19 07:09:15;;;;;;;3.13;2.33;;;;;;;33.50;46.47;98007.72;4939326;29;20031;-91
2021/07/19 07:11:40;;;;;;;3.20;2.38;;;;;;;33.77;45.86;98018.84;4939296;29;20027;-90
2021/07/19 07:14:07;;;;;;;2.40;2.20;;;;;;;32.91;47.85;98008.56;4939600;29;20033;-92
2021/07/19 07:16:35;;;;;;;3.00;2.55;;;;;;;33.34;47.93;98023.00;4939409;29;20038;-92
2021/07/19 07:19:01;;;;;;;4.57;2.28;;;;;;;33.39;46.97;97994.06;4939637;29;20031;-92
2021/07/19 07:21:27;;;;;;;3.55;2.55;;;;;;;34.06;46.25;98012.16;4939150;29;20030;-92
2021/07/19 07:23:52;;;;;;;4.28;3.42;;;;;;;35.34;43.25;98004.63;4939062;29;20043;-95
2021/07/19 07:26:18;;;;;;;5.13;2.55;;;;;;;34.50;42.98;98000.75;4938952;29;20496;-92
2021/07/19 07:28:45;;;;;;;1.90;1.80;;;;;;;33.87;44.96;98005.22;4939057;29;20067;-92
2021/07/19 07:31:11;;;;;;;2.70;2.25;;;;;;;32.85;47.54;98005.28;4939405;29;20027;-88
2021/07/19 07:33:37;;;;;;;2.30;2.15;;;;;;;32.30;49.65;98007.03;4939236;29;20476;-90
2021/07/19 07:36:07;;;;;;;1.40;1.33;;;;;;;32.69;48.64;98001.25;4938518;29;20031;-95
2021/07/19 07:38:33;;;;;;;2.15;1.95;;;;;;;32.63;49.11;98007.25;4939857;29;20031;-93
2021/07/19 07:40:58;;;;;;;17.92;2.63;;;;;;;32.67;48.45;97981.09;4940458;29;20066;-95
2021/07/19 07:43:25;;;;;;;4.38;1.90;;;;;;;34.09;45.77;97996.59;4938920;29;20098;-95
2021/07/19 07:45:50;;;;;;;3.65;2.65;;;;;;;34.39;44.97;97986.38;4939179;29;20027;-90
2021/07/19 07:48:16;;;;;;;2.88;2.28;;;;;;;34.59;43.83;97982.69;4956171;29;20034;-88
2021/07/19 07:50:42;;;;;;;1.77;1.67;;;;;;;34.42;45.20;98008.81;4938794;29;20070;-94
2021/07/19 07:53:07;;;;;;;1.83;1.73;;;;;;;34.42;44.28;97999.50;4938955;29;20035;-91
2021/07/19 07:55:32;;;;;;;2.38;2.17;;;;;;;32.82;46.97;97997.91;4956702;29;20039;-93
2021/07/19 07:57:58;;;;;;;4.97;2.53;;;;;;;32.31;50.16;97971.34;4939420;29;20066;-96
2021/07/19 08:00:23;;;;;;;2.42;2.20;;;;;;;33.97;48.20;97990.03;4920047;29;20031;-91
2021/07/19 08:02:49;;;;;;;1.92;1.83;;;;;;;34.55;45.15;97996.75;4920116;29;20472;-94
2021/07/19 08:05:15;;;;;;;4.22;1.83;;;;;;;34.82;43.21;97972.63;4936652;29;20023;-94
2021/07/19 08:07:41;;;;;;;2.17;2.08;;;;;;;34.47;43.97;97973.31;4920804;29;20031;-92
2021/07/19 08:10:08;;;;;;;10.85;3.65;;;;;;;34.13;45.24;97993.97;4919455;29;20032;-93
2021/07/19 08:12:34;;;;;;;2.03;1.88;;;;;;;33.92;45.13;97954.63;4919698;29;20043;-93
2021/07/19 08:15:03;;;;;;;3.00;2.72;;;;;;;33.03;47.56;97989.38;4936971;29;20031;-92
2021/07/19 08:17:29;;;;;;;5.40;3.13;;;;;;;32.42;48.83;97994.97;4919678;29;20043;-91
2021/07/19 08:19:56;;;;;;;2.40;2.17;;;;;;;31.66;50.98;97990.72;4913729;29;20024;-91
2021/07/19 08:22:23;;;;;;;2.47;2.28;;;;;;;31.87;50.40;97982.34;4917517;29;20470;-90
2021/07/19 08:24:49;;;;;;;6.25;2.63;;;;;;;32.36;50.69;97978.13;4919554;29;20035;-94
2021/07/19 08:27:15;;;;;;;2.25;2.08;;;;;;;32.42;51.03;97964.25;4919128;29;20406;-88
2021/07/19 08:29:40;;;;;;;1.63;1.52;;;;;;;31.71;50.62;97975.44;4919115;29;20027;-89
2021/07/19 08:32:07;;;;;;;2.20;1.67;;;;;;;31.70;52.78;97996.78;4936486;29;20483;-91
2021/07/19 08:34:33;;;;;;;2.33;2.13;;;;;;;32.09;51.59;97974.66;4918664;29;20043;-92
2021/07/19 08:36:59;;;;;;;4.30;2.47;;;;;;;32.10;49.86;97973.31;4918605;29;20040;-94
2021/07/19 08:39:25;;;;;;;2.20;2.00;;;;;;;32.28;50.47;97966.09;4918528;29;20038;-91
2021/07/19 08:41:52;;;;;;;2.75;1.90;;;;;;;32.41;48.78;97982.03;4918588;29;20028;-91
2021/07/19 08:44:17;;;;;;;3.00;1.90;;;;;;;32.11;51.73;97941.25;4930875;29;20034;-90
2021/07/19 08:46:43;;;;;;;3.58;2.53;;;;;;;32.05;48.50;97932.25;4933262;29;20039;-87
2021/07/19 08:49:09;;;;;;;1.73;1.63;;;;;;;31.81;49.24;97974.06;4937103;29;20078;-88
2021/07/19 08:51:41;;;;;;;4.30;2.58;;;;;;;31.65;51.83;97964.28;4941305;29;20503;-87
2021/07/19 08:54:10;;;;;;;1.88;1.77;;;;;;;31.62;51.33;97968.34;4941626;29;20094;-90
2021/07/19 08:56:36;;;;;;;5.18;2.17;;;;;;;31.35;52.12;97968.41;4958826;28;20043;-89
2021/07/19 08:59:02;;;;;;;3.22;2.92;;;;;;;31.38;52.68;97975.78;4948719;29;20083;-90
2021/07/19 09:01:30;;;;;;;4.18;3.08;;;;;;;30.83;51.84;97947.19;4923724;29;20075;-91
2021/07/19 09:03:55;;;;;;;3.75;2.10;;;;;;;30.94;53.19;97964.50;4952278;29;20038;-89
2021/07/19 09:06:21;;;;;;;2.90;2.15;;;;;;;30.34;54.95;97949.78;4927640;29;20426;-91
2021/07/19 09:08:49;;;;;;;4.82;2.47;;;;;;;30.74;54.81;97935.16;4932181;29;20031;-91
2021/07/19 09:11:15;;;;;;;2.83;2.28;;;;;;;30.85;53.40;97950.22;4944757;29;20027;-91
2021/07/19 09:13:55;;;;;;;3.78;2.38;;;;;;;30.96;53.31;97953.25;4941544;29;20038;-91
2021/07/19 09:16:20;;;;;;;8.48;2.72;;;;;;;30.86;52.00;97877.56;4945205;29;20027;-90
2021/07/19 09:18:46;;;;;;;1.98;1.75;;;;;;;31.84;50.53;97937.81;4940129;29;20027;-87
2021/07/19 09:21:29;;;;;;;10.55;2.63;;;;;;;31.96;48.24;97952.25;4940637;29;20031;-86
2021/07/19 09:24:02;;;;;;;4.28;2.78;;;;;;;31.56;48.71;97944.25;4941372;29;20042;-89
2021/07/19 09:26:31;;;;;;;3.45;2.58;;;;;;;31.16;49.03;97954.09;4958525;29;20027;-89
2021/07/19 09:28:57;;;;;;;3.88;2.17;;;;;;;31.23;50.40;97938.19;4958061;29;20514;-90
2021/07/19 09:31:32;;;;;;;1.70;1.10;;;;;;;30.97;48.92;97945.47;4940982;29;20735;-88
2021/07/19 09:33:58;;;;;;;2.13;1.90;;;;;;;30.82;49.18;97937.88;4941513;29;20035;-92
2021/07/19 09:36:30;;;;;;;3.20;1.88;;;;;;;30.68;49.07;97948.94;4941785;29;20479;-95
2021/07/19 09:39:09;;;;;;;3.00;2.13;;;;;;;30.71;50.82;97933.50;4942284;29;20084;-94
2021/07/19 09:41:35;;;;;;;2.85;2.28;;;;;;;31.25;50.95;97941.19;4941564;29;20066;-92
2021/07/19 09:44:06;;;;;;;43.92;4.93;;;;;;;31.54;48.80;97944.84;4941551;29;20047;-90
2021/07/19 09:46:33;;;;;;;2.47;2.08;;;;;;;31.32;49.83;97958.19;4941093;29;20035;-94
2021/07/19 09:49:00;;;;;;;3.13;2.80;;;;;;;31.09;49.13;97955.00;4941838;29;20220;-88
2021/07/19 09:51:34;;;;;;;1.75;1.65;;;;;;;30.82;50.82;97943.59;4940978;29;20043;-91
2021/07/19 09:54:13;;;;;;;3.28;2.10;;;;;;;30.76;50.56;97942.38;4941523;29;20043;-93
2021/07/19 09:56:42;;;;;;;3.35;3.05;;;;;;;30.42;50.75;97889.81;4955091;28;20054;-92
2021/07/19 09:59:14;;;;;;;4.68;2.42;;;;;;;30.63;50.24;97934.94;4970488;28;20037;-96
2021/07/19 10:01:44;;;;;;;5.00;2.90;;;;;;;30.74;49.60;97952.25;4964786;23;20597;-96
2021/07/19 10:04:17;;;;;;;2.47;2.38;;;;;;;31.21;48.72;97940.91;5070600;23;20486;-95
2021/07/19 10:06:45;;;;;;;5.95;2.15;;;;;;;31.33;48.30;97916.88;5159469;23;20580;-95
2021/07/19 10:09:12;;;;;;;2.17;2.08;;;;;;;31.54;47.58;97939.88;4968392;23;20122;-96
2021/07/19 10:11:42;;;;;;;4.72;2.22;;;;;;;30.92;49.73;97875.16;4950234;29;20487;-89
2021/07/19 10:14:09;;;;;;;1.70;1.63;;;;;;;31.09;48.74;97890.09;4948754;29;20028;-91
2021/07/19 10:16:36;;;;;;;7.82;3.78;;;;;;;31.32;47.80;97929.66;4940843;29;20036;-89
2021/07/19 10:19:04;;;;;;;4.88;3.67;;;;;;;31.36;49.23;97932.81;4940419;29;20039;-92
2021/07/19 10:21:33;;;;;;;2.13;1.75;;;;;;;31.39;48.25;97925.16;4944023;29;20460;-96
2021/07/19 10:24:07;;;;;;;3.28;1.98;;;;;;;31.65;49.72;97915.72;4964764;29;20023;-96
2021/07/19 10:26:34;;;;;;;2.67;2.33;;;;;;;31.80;48.13;97940.38;4958628;28;20558;-95
2021/07/19 10:29:00;;;;;;;3.27;2.63;;;;;;;31.58;47.65;97921.56;4957878;29;20067;-91
2021/07/19 10:31:28;;;;;;;2.55;2.35;;;;;;;31.46;48.20;97933.59;4957160;29;20043;-93
2021/07/19 10:33:56;;;;;;;3.28;2.50;;;;;;;31.17;49.38;97900.59;4962950;28;20031;-92
2021/07/19 10:36:40;;;;;;;3.38;3.08;;;;;;;31.49;48.00;97889.53;4962719;28;20030;-93
2021/07/19 10:39:20;;;;;;;5.70;2.80;;;;;;;31.61;50.21;97920.38;4961573;28;20085;-96
2021/07/19 10:41:45;;;;;;;7.22;3.30;;;;;;;31.56;48.79;97890.00;4962609;28;20124;-95
2021/07/19 10:44:14;;;;;;;4.32;3.25;;;;;;;31.86;47.85;97906.53;4962038;28;20479;-95
2021/07/19 10:46:41;;;;;;;4.05;3.05;;;;;;;32.05;49.20;97911.50;4977535;28;20027;-92
2021/07/19 10:49:13;;;;;;;4.15;2.40;;;;;;;31.74;47.90;97860.69;4959619;28;20115;-93
2021/07/19 10:51:40;;;;;;;2.58;2.40;;;;;;;32.00;47.37;97901.13;4977912;28;20039;-95
2021/07/19 10:54:20;;;;;;;4.33;3.40;;;;;;;31.66;48.68;97894.38;4960601;28;20395;-89
2021/07/19 10:56:47;;;;;;;3.63;3.05;;;;;;;31.53;49.04;97897.66;4960562;28;20031;-92
2021/07/19 10:59:30;;;;;;;6.88;4.35;;;;;;;31.11;49.02;97893.09;4956196;29;20480;-91
2021/07/19 11:01:57;;;;;;;3.08;2.88;;;;;;;31.05;49.14;97897.59;4956581;29;20042;-91
2021/07/19 11:04:24;;;;;;;2.60;2.40;;;;;;;30.89;49.86;97862.09;4955494;29;20031;-94
2021/07/19 11:06:59;;;;;;;2.60;2.42;;;;;;;31.23;48.71;97887.56;4956740;29;20488;-89
2021/07/19 11:09:38;;;;;;;2.47;2.28;;;;;;;31.29;49.23;97873.75;4955278;29;20060;-91
2021/07/19 11:12:17;;;;;;;2.55;2.38;;;;;;;31.27;48.68;97853.63;4955796;28;20055;-91
2021/07/19 11:14:45;;;;;;;4.68;2.85;;;;;;;31.48;49.09;97878.72;4956755;29;20055;-94
2021/07/19 11:17:11;;;;;;;5.97;2.72;;;;;;;31.44;48.54;97850.63;4962273;28;20135;-95
2021/07/19 11:19:39;;;;;;;7.18;3.00;;;;;;;31.96;49.97;97872.97;4962556;28;20109;-96
2021/07/19 11:22:18;;;;;;;2.85;2.60;;;;;;;32.31;47.30;97859.09;4960233;29;20038;-96
2021/07/19 11:24:49;;;;;;;4.63;3.67;;;;;;;32.15;47.18;97867.25;4962603;29;20035;-95
2021/07/19 11:27:19;;;;;;;5.50;3.00;;;;;;;32.06;47.18;97859.44;4965865;29;20033;-95
2021/07/19 11:29:45;;;;;;;5.65;3.13;;;;;;;31.91;49.17;97865.47;4963744;29;20027;-93
2021/07/19 11:32:26;;;;;;;1.38;1.27;;;;;;;31.80;49.36;97868.97;4963677;29;20551;-96
2021/07/19 11:34:52;;;;;;;10.30;1.80;;;;;;;31.71;46.83;97872.59;4963698;29;20035;-96
2021/07/19 11:37:21;;;;;;;2.65;2.42;;;;;;;31.76;47.25;97860.09;4961983;29;20103;-93